Time;durP1;ratioP1;P1;durP2;ratioP2;P2;SDS_P1;SDS_P2;PMS_P1;PMS_P2;Temp;Humidity;BMP_temperature;BMP_pressure;BME280_temperature;BME280_humidity;BME280_pressure;Samples;Min_cycle;Max_cycle;Signal;HPM_P1;HPM_P2
2022/04/25 00:00:15;;;;;;;14.67;8.87;;;9.30;99.90;;;;;;5044681;28;20196;-84
2022/04/25 00:02:46;;;;;;;12.50;8.77;;;9.40;99.90;;;;;;5038625;28;20203;-73
2022/04/25 00:05:23;;;;;;;13.30;8.97;;;9.40;99.90;;;;;;5038594;28;20207;-73
2022/04/25 00:12:09;;;;;;;11.00;7.87;;;9.40;99.90;;;;;;4977785;28;20216;-76
2022/04/25 00:14:45;;;;;;;12.00;8.13;;;9.30;99.90;;;;;;4977416;28;20201;-80
2022/04/25 00:17:16;;;;;;;10.93;8.20;;;9.30;99.90;;;;;;4977517;28;20197;-77
2022/04/25 00:19:47;;;;;;;10.77;7.73;;;9.40;99.90;;;;;;4977521;28;20219;-75
2022/04/25 00:22:14;;;;;;;12.20;8.57;;;9.40;99.90;;;;;;4977281;28;20588;-76
2022/04/25 00:24:54;;;;;;;11.30;7.53;;;9.40;99.90;;;;;;4977215;28;20201;-87
2022/04/25 00:27:22;;;;;;;11.17;7.70;;;9.30;99.90;;;;;;4977780;28;20204;-86
2022/04/25 00:29:56;;;;;;;11.90;8.27;;;9.30;99.90;;;;;;4978121;28;20206;-74
2022/04/25 00:33:04;;;;;;;10.63;7.80;;;9.30;99.90;;;;;;4990194;28;20206;-74
2022/04/25 00:39:37;;;;;;;10.47;7.33;;;9.30;99.90;;;;;;5012930;28;20544;-78
2022/04/25 00:46:19;;;;;;;11.07;7.40;;;9.40;99.90;;;;;;4894379;29;20224;-74
2022/04/25 00:53:39;;;;;;;10.33;7.07;;;9.40;99.90;;;;;;4823234;29;20191;-75
2022/04/25 00:56:08;;;;;;;12.17;7.27;;;9.50;99.90;;;;;;4840708;29;20271;-74
2022/04/25 00:58:45;;;;;;;10.70;6.93;;;9.40;99.90;;;;;;4881344;29;20302;-74
2022/04/25 01:01:15;;;;;;;10.00;7.20;;;9.40;99.90;;;;;;4896953;29;20204;-73
2022/04/25 01:03:43;;;;;;;10.93;6.97;;;9.40;99.90;;;;;;4881331;29;20277;-74
2022/04/25 01:06:27;;;;;;;9.43;6.43;;;9.30;99.90;;;;;;4879359;29;20212;-74
2022/04/25 01:08:55;;;;;;;10.97;6.77;;;9.30;99.90;;;;;;4881407;29;20220;-73
2022/04/25 01:11:23;;;;;;;10.43;7.13;;;9.30;99.90;;;;;;4881473;29;20227;-74
2022/04/25 01:13:51;;;;;;;10.07;6.63;;;9.30;99.90;;;;;;4881109;29;20216;-77
2022/04/25 01:16:19;;;;;;;8.53;6.00;;;9.30;99.90;;;;;;4896611;29;20216;-78
2022/04/25 01:18:59;;;;;;;9.77;6.67;;;9.30;99.90;;;;;;4896419;29;20682;-78
2022/04/25 01:21:57;;;;;;;9.10;5.67;;;9.30;99.90;;;;;;4888293;29;20204;-76
2022/04/25 01:27:36;;;;;;;8.47;6.40;;;9.20;99.90;;;;;;5030522;28;20194;-74
2022/04/25 01:31:13;;;;;;;8.47;5.57;;;9.20;99.90;;;;;;5053468;28;20187;-74
2022/04/25 01:34:33;;;;;;;9.17;6.23;;;9.30;99.90;;;;;;5003991;28;20229;-75
2022/04/25 01:37:22;;;;;;;7.30;5.23;;;9.20;99.90;;;;;;5053646;28;20557;-79
2022/04/25 01:40:02;;;;;;;8.00;5.50;;;9.20;99.90;;;;;;5035680;28;20285;-75
2022/04/25 01:42:33;;;;;;;8.17;6.03;;;9.10;99.90;;;;;;5035637;28;20230;-76
2022/04/25 01:45:04;;;;;;;7.93;5.63;;;9.10;99.90;;;;;;5035474;28;20195;-76
2022/04/25 01:47:46;;;;;;;8.53;5.90;;;9.10;99.90;;;;;;5035795;28;20190;-73
2022/04/25 01:50:16;;;;;;;7.80;5.73;;;9.10;99.90;;;;;;5035372;28;20202;-73
2022/04/25 01:52:44;;;;;;;8.63;5.70;;;9.10;99.90;;;;;;5035238;28;20289;-74
2022/04/25 01:55:12;;;;;;;7.67;5.80;;;9.10;99.90;;;;;;5035226;28;20290;-74
2022/04/25 01:57:45;;;;;;;7.83;5.77;;;9.10;99.90;;;;;;5037028;28;20274;-85
2022/04/25 02:00:15;;;;;;;7.90;6.10;;;9.10;99.90;;;;;;5036057;28;20225;-85
2022/04/25 02:02:43;;;;;;;8.57;6.17;;;9.10;99.90;;;;;;5035883;28;20222;-85
2022/04/25 02:05:11;;;;;;;8.67;6.50;;;9.20;99.90;;;;;;5035167;28;20194;-82
2022/04/25 02:07:38;;;;;;;7.17;5.50;;;9.20;99.90;;;;;;5036058;28;20739;-81
2022/04/25 02:10:06;;;;;;;9.10;6.00;;;9.20;99.90;;;;;;5035788;28;20195;-76
2022/04/25 02:12:34;;;;;;;9.30;6.23;;;9.20;99.90;;;;;;5035657;28;20722;-77
2022/04/25 02:15:05;;;;;;;8.90;6.07;;;9.20;99.90;;;;;;5035441;28;20293;-77
2022/04/25 02:17:32;;;;;;;8.50;5.90;;;9.20;99.90;;;;;;5035595;28;20521;-75
2022/04/25 02:20:02;;;;;;;8.13;6.13;;;9.20;99.90;;;;;;5035183;28;20183;-75
2022/04/25 02:22:50;;;;;;;9.10;5.87;;;9.20;99.90;;;;;;5052646;28;20210;-74
2022/04/25 02:25:17;;;;;;;10.10;6.00;;;9.10;99.90;;;;;;5035102;28;20195;-86
2022/04/25 02:27:44;;;;;;;9.40;6.00;;;9.10;99.90;;;;;;5035628;28;20253;-84
2022/04/25 02:30:11;;;;;;;9.10;5.67;;;9.10;99.90;;;;;;5035803;28;20206;-86
2022/04/25 02:32:39;;;;;;;7.97;5.83;;;9.20;99.90;;;;;;5035953;28;20206;-85
2022/04/25 02:35:09;;;;;;;8.43;6.00;;;9.20;99.90;;;;;;5025121;28;20265;-79
2022/04/25 02:37:39;;;;;;;10.03;6.20;;;9.20;99.90;;;;;;5019072;28;20293;-74
2022/04/25 02:40:07;;;;;;;7.23;5.50;;;9.10;99.90;;;;;;5019162;28;20556;-75
2022/04/25 02:42:38;;;;;;;8.53;5.90;;;9.10;99.90;;;;;;5019596;28;20230;-87
2022/04/25 02:45:06;;;;;;;7.43;5.20;;;9.20;99.90;;;;;;5019242;28;20207;-74
2022/04/25 02:47:41;;;;;;;7.33;5.50;;;9.10;99.90;;;;;;5020510;28;20219;-74
2022/04/25 02:50:14;;;;;;;7.03;5.33;;;9.10;99.90;;;;;;5043166;28;20245;-80
2022/04/25 02:52:43;;;;;;;6.97;5.30;;;9.10;99.90;;;;;;5021543;28;20226;-86
2022/04/25 02:55:16;;;;;;;8.20;6.13;;;9.10;99.90;;;;;;5026801;28;20265;-86
2022/04/25 02:58:01;;;;;;;;;;;;;;;;;;;;;
2022/04/25 03:01:22;;;;;;;6.90;5.00;;;9.10;99.90;;;;;;4910148;28;20193;-84
2022/04/25 03:03:50;;;;;;;7.57;5.20;;;9.10;99.90;;;;;;4956208;29;20587;-72
2022/04/25 03:06:17;;;;;;;8.60;5.50;;;9.20;99.90;;;;;;4939850;29;20202;-85
2022/04/25 03:08:45;;;;;;;8.47;5.40;;;9.10;99.90;;;;;;4956906;29;20611;-84
2022/04/25 03:11:34;;;;;;;6.97;5.23;;;9.10;99.90;;;;;;4940090;29;20206;-85
2022/04/25 03:14:02;;;;;;;8.03;5.50;;;9.10;99.90;;;;;;4940550;29;20739;-84
2022/04/25 03:16:29;;;;;;;7.07;5.47;;;9.10;99.90;;;;;;4940180;29;20532;-83
2022/04/25 03:18:59;;;;;;;8.77;6.33;;;9.10;99.90;;;;;;4940030;29;20213;-85
2022/04/25 03:21:30;;;;;;;7.87;5.90;;;9.10;99.90;;;;;;4955668;29;20202;-84
2022/04/25 03:23:58;;;;;;;7.93;5.63;;;9.10;99.90;;;;;;4955773;29;20230;-73
2022/04/25 03:26:40;;;;;;;7.53;5.90;;;9.00;99.90;;;;;;4955441;29;20293;-74
2022/04/25 03:29:49;;;;;;;8.40;5.93;;;9.00;99.90;;;;;;4939922;29;20213;-85
2022/04/25 03:32:27;;;;;;;10.83;6.27;;;9.00;99.90;;;;;;4928551;29;20213;-82
2022/04/25 03:34:58;;;;;;;8.60;6.40;;;9.00;99.90;;;;;;4967670;28;20229;-77
2022/04/25 03:37:26;;;;;;;9.20;6.10;;;8.90;99.90;;;;;;4998486;28;20199;-77
2022/04/25 03:39:53;;;;;;;8.70;6.10;;;8.90;99.90;;;;;;5038200;28;20201;-81
2022/04/25 03:42:20;;;;;;;8.90;6.20;;;9.00;99.90;;;;;;5038329;28;20695;-86
2022/04/25 03:44:47;;;;;;;8.53;6.07;;;9.00;99.90;;;;;;5037309;28;20660;-81
2022/04/25 03:47:15;;;;;;;9.57;7.07;;;9.00;99.90;;;;;;5038095;28;20256;-80
2022/04/25 03:49:45;;;;;;;9.50;6.50;;;9.00;99.90;;;;;;5037906;28;20615;-81
2022/04/25 03:52:12;;;;;;;9.37;6.30;;;9.00;99.90;;;;;;5038168;28;20219;-79
2022/04/25 03:57:25;;;;;;;8.37;6.23;;;9.10;99.90;;;;;;5037978;28;20225;-77
2022/04/25 03:59:52;;;;;;;7.13;5.80;;;9.10;99.90;;;;;;5037866;28;20191;-78
2022/04/25 04:02:20;;;;;;;8.23;5.73;;;9.00;99.90;;;;;;5037519;28;20250;-78
2022/04/25 04:04:50;;;;;;;7.93;5.90;;;8.90;99.90;;;;;;5037857;28;20218;-77
2022/04/25 04:07:17;;;;;;;7.27;6.00;;;9.00;99.90;;;;;;5038794;28;20206;-74
2022/04/25 04:09:44;;;;;;;8.33;6.40;;;8.90;99.90;;;;;;5038023;28;20256;-80
2022/04/25 04:12:13;;;;;;;8.23;5.80;;;8.90;99.90;;;;;;5037442;28;20194;-77
2022/04/25 04:14:41;;;;;;;8.23;5.83;;;8.90;99.90;;;;;;5037173;28;20199;-79
2022/04/25 04:17:08;;;;;;;8.40;5.83;;;8.90;99.90;;;;;;5037382;28;20199;-77
2022/04/25 04:19:36;;;;;;;7.73;5.53;;;8.80;99.90;;;;;;5037070;28;20569;-77
2022/04/25 04:22:06;;;;;;;7.57;5.73;;;8.90;99.90;;;;;;5037155;28;20564;-77
2022/04/25 04:24:34;;;;;;;7.00;5.20;;;8.90;99.90;;;;;;5037324;28;20231;-75
2022/04/25 04:27:03;;;;;;;6.57;5.00;;;8.90;99.90;;;;;;5036841;28;20199;-73
2022/04/25 04:29:33;;;;;;;6.77;5.00;;;8.90;99.90;;;;;;5037587;28;20222;-83
2022/04/25 04:32:17;;;;;;;;;;;;;;;;;;;;;
2022/04/25 04:35:16;;;;;;;;;;;;;;;;;;;;;
2022/04/25 04:38:34;;;;;;;6.70;4.83;;;9.10;99.90;;;;;;5050071;28;20183;-74
2022/04/25 04:41:01;;;;;;;7.60;5.53;;;9.10;99.90;;;;;;5043365;28;20207;-85
2022/04/25 04:43:31;;;;;;;7.60;4.80;;;9.20;99.90;;;;;;5041764;28;20250;-83
2022/04/25 04:45:58;;;;;;;6.70;4.93;;;9.10;99.90;;;;;;5039717;28;20252;-79
2022/04/25 04:48:34;;;;;;;7.30;5.10;;;9.10;99.90;;;;;;5038023;28;20221;-77
2022/04/25 04:51:04;;;;;;;7.50;5.17;;;9.20;99.90;;;;;;5037623;28;20563;-79
2022/04/25 04:53:37;;;;;;;6.33;4.90;;;9.20;99.90;;;;;;5038601;28;20293;-77
2022/04/25 04:56:13;;;;;;;6.70;4.70;;;9.00;99.90;;;;;;5039887;28;20246;-74
2022/04/25 04:58:40;;;;;;;8.50;5.50;;;9.10;99.90;;;;;;5041835;28;20701;-76
2022/04/25 05:01:08;;;;;;;7.03;5.33;;;9.10;99.90;;;;;;5041457;28;20205;-76
2022/04/25 05:03:41;;;;;;;7.30;5.27;;;9.20;99.90;;;;;;5040006;28;20215;-79
2022/04/25 05:06:09;;;;;;;7.23;5.17;;;9.20;99.90;;;;;;5039234;28;20190;-76
2022/04/25 05:08:36;;;;;;;6.87;5.20;;;9.20;99.90;;;;;;5038056;28;20199;-74
2022/04/25 05:11:05;;;;;;;6.97;5.63;;;9.20;99.90;;;;;;5036759;28;20270;-73
2022/04/25 05:13:32;;;;;;;9.00;5.13;;;9.10;99.90;;;;;;5040332;28;20207;-84
2022/04/25 05:15:59;;;;;;;6.73;5.17;;;9.10;99.90;;;;;;5040926;28;20213;-88
2022/04/25 05:18:27;;;;;;;7.03;5.57;;;9.20;99.90;;;;;;5058447;28;20656;-84
2022/04/25 05:20:54;;;;;;;8.57;5.43;;;9.20;99.90;;;;;;5042676;28;20550;-86
2022/04/25 05:23:21;;;;;;;6.77;5.40;;;9.20;99.90;;;;;;5025472;28;20639;-87
2022/04/25 05:25:48;;;;;;;6.27;5.13;;;9.20;99.90;;;;;;5038289;28;20620;-82
2022/04/25 05:28:15;;;;;;;6.60;5.17;;;9.30;99.90;;;;;;5036638;28;20212;-84
2022/04/25 05:30:44;;;;;;;7.30;5.63;;;9.30;99.90;;;;;;5037210;28;20191;-77
2022/04/25 05:33:16;;;;;;;7.63;5.17;;;9.30;99.90;;;;;;5036343;28;20656;-79
2022/04/25 05:35:44;;;;;;;8.27;5.53;;;9.30;99.90;;;;;;5035916;28;20233;-75
2022/04/25 05:38:12;;;;;;;8.27;6.13;;;9.30;99.90;;;;;;5036079;28;20253;-74
2022/04/25 05:40:40;;;;;;;9.80;5.70;;;9.40;99.90;;;;;;5035547;28;20268;-75
2022/04/25 05:43:08;;;;;;;7.93;6.20;;;9.50;99.90;;;;;;5043301;28;20221;-74
2022/04/25 05:45:36;;;;;;;6.83;6.03;;;9.50;99.90;;;;;;5053278;28;20200;-74
2022/04/25 05:51:58;;;;;;;7.23;5.67;;;9.50;99.90;;;;;;5039122;28;20224;-75
2022/04/25 05:53:38;;;;;;;6.83;5.77;;;9.50;99.90;;;;;;5036364;28;20191;-83
2022/04/25 05:56:10;;;;;;;7.97;5.80;;;9.50;99.90;;;;;;5036187;28;20198;-77
2022/04/25 05:58:37;;;;;;;8.43;5.90;;;9.50;99.90;;;;;;5035720;28;20195;-77
2022/04/25 06:01:05;;;;;;;7.23;5.67;;;9.50;99.90;;;;;;5035499;28;20202;-78
2022/04/25 06:03:35;;;;;;;9.23;6.43;;;9.60;99.90;;;;;;5036211;28;20206;-74
2022/04/25 06:09:25;;;;;;;8.97;6.33;;;9.50;99.90;;;;;;4976655;28;20202;-81
2022/04/25 06:11:54;;;;;;;9.00;6.60;;;9.60;99.90;;;;;;4976501;28;20228;-78
2022/04/25 06:14:24;;;;;;;8.53;6.40;;;9.70;99.90;;;;;;4960299;28;20201;-74
2022/04/25 06:16:54;;;;;;;8.57;6.20;;;9.60;99.90;;;;;;4960144;28;20201;-74
2022/04/25 06:19:22;;;;;;;9.10;6.60;;;9.80;99.90;;;;;;4960179;28;20212;-83
2022/04/25 06:21:50;;;;;;;8.57;6.30;;;9.90;99.90;;;;;;4918580;29;20654;-74
2022/04/25 06:24:47;;;;;;;7.63;6.30;;;10.00;99.90;;;;;;4918619;29;20231;-83
2022/04/25 06:27:23;;;;;;;8.53;5.87;;;10.10;99.90;;;;;;4898788;29;20210;-83
2022/04/25 06:29:57;;;;;;;11.53;7.00;;;10.00;99.90;;;;;;4918564;29;20210;-74
2022/04/25 06:32:55;;;;;;;9.00;6.60;;;10.00;99.90;;;;;;4918322;29;20207;-75
2022/04/25 06:35:25;;;;;;;9.80;6.97;;;10.00;99.90;;;;;;4902588;29;20275;-73
2022/04/25 06:37:52;;;;;;;8.57;6.77;;;10.00;99.90;;;;;;4903225;29;20207;-74
2022/04/25 06:40:32;;;;;;;9.83;7.23;;;10.10;99.90;;;;;;4949107;28;20198;-73
2022/04/25 06:42:59;;;;;;;9.40;6.80;;;10.10;99.90;;;;;;4978650;28;20256;-73
2022/04/25 06:45:26;;;;;;;8.47;6.40;;;10.10;99.90;;;;;;4973618;28;20229;-73
2022/04/25 06:47:54;;;;;;;8.77;6.63;;;10.10;99.90;;;;;;5023626;28;20187;-74
2022/04/25 06:50:48;;;;;;;8.53;6.30;;;10.10;99.90;;;;;;5056489;28;20205;-76
2022/04/25 06:53:15;;;;;;;8.70;6.83;;;10.30;99.90;;;;;;5038447;28;20223;-75
2022/04/25 06:56:18;;;;;;;11.17;6.80;;;10.40;99.90;;;;;;5038565;28;20252;-89
2022/04/25 07:02:37;;;;;;;8.47;6.17;;;10.50;99.90;;;;;;4979211;28;20204;-81
2022/04/25 07:05:56;;;;;;;8.37;6.17;;;10.50;99.90;;;;;;4951749;28;20816;-74
2022/04/25 07:08:26;;;;;;;7.73;6.37;;;10.50;99.90;;;;;;4978424;28;20197;-91
2022/04/25 07:10:53;;;;;;;12.80;6.37;;;10.50;99.90;;;;;;4978977;28;20201;-88
2022/04/25 07:13:20;;;;;;;8.97;6.47;;;10.50;99.90;;;;;;4979181;28;20196;-83
2022/04/25 07:15:48;;;;;;;9.83;6.70;;;10.60;99.90;;;;;;4978900;28;20204;-83
2022/04/25 07:18:15;;;;;;;8.67;6.30;;;10.60;99.90;;;;;;4995657;28;20830;-83
2022/04/25 07:20:43;;;;;;;8.33;6.40;;;10.40;99.90;;;;;;4979218;28;20594;-77
2022/04/25 07:29:12;;;;;;;8.70;5.93;;;10.50;99.90;;;;;;5017306;28;20614;-79
2022/04/25 07:31:40;;;;;;;8.87;6.13;;;10.60;99.90;;;;;;4998936;28;20289;-77
2022/04/25 07:34:07;;;;;;;8.73;6.53;;;10.50;99.90;;;;;;4997337;28;20399;-79
2022/04/25 07:36:42;;;;;;;10.30;6.50;;;10.60;99.90;;;;;;5024724;28;20290;-77
2022/04/25 07:39:10;;;;;;;9.70;6.60;;;10.70;99.90;;;;;;5041510;28;20583;-87
2022/04/25 07:41:37;;;;;;;10.37;7.17;;;10.80;99.90;;;;;;5039821;28;20204;-87
2022/04/25 07:44:05;;;;;;;10.90;8.20;;;10.80;99.90;;;;;;5035339;28;20227;-87
2022/04/25 07:46:33;;;;;;;11.07;8.40;;;10.80;99.90;;;;;;5034992;28;20200;-79
2022/04/25 07:49:00;;;;;;;11.97;9.07;;;10.80;99.90;;;;;;5034696;28;20223;-74
2022/04/25 07:51:28;;;;;;;11.33;9.27;;;10.80;99.90;;;;;;5035746;28;20269;-77
2022/04/25 07:53:56;;;;;;;13.03;8.77;;;10.70;99.90;;;;;;5036373;28;20187;-74
2022/04/25 07:56:24;;;;;;;10.97;8.67;;;10.50;99.90;;;;;;5035982;28;20644;-82
2022/04/25 07:58:51;;;;;;;10.63;8.43;;;10.40;99.90;;;;;;5034809;28;20592;-85
2022/04/25 08:01:19;;;;;;;9.63;7.47;;;10.50;99.90;;;;;;5036914;28;20612;-73
2022/04/25 08:03:46;;;;;;;10.07;7.93;;;10.60;99.90;;;;;;5037186;28;20684;-80
2022/04/25 08:06:15;;;;;;;11.17;8.00;;;10.80;99.90;;;;;;5033910;28;20226;-84
2022/04/25 08:08:42;;;;;;;11.17;7.90;;;10.70;99.90;;;;;;5039289;28;20681;-84
2022/04/25 08:18:13;;;;;;;12.53;9.20;;;10.80;99.90;;;;;;5040862;28;20195;-79
2022/04/25 08:20:43;;;;;;;11.67;9.40;;;10.90;99.90;;;;;;5033706;28;20206;-82
2022/04/25 08:23:13;;;;;;;13.53;9.77;;;10.90;99.90;;;;;;5035042;28;20204;-81
2022/04/25 08:25:45;;;;;;;12.70;9.40;;;10.80;99.90;;;;;;5039430;28;20212;-84
2022/04/25 08:28:29;;;;;;;;;;;;;;;;;;;;;
2022/04/25 08:31:41;;;;;;;12.37;9.53;;;10.80;99.90;;;;;;5047686;28;20198;-86
2022/04/25 08:34:09;;;;;;;10.77;8.77;;;10.90;99.90;;;;;;5045247;28;20699;-87
2022/04/25 08:40:05;;;;;;;12.87;8.87;;;10.80;99.90;;;;;;5018711;28;20194;-83
2022/04/25 08:42:33;;;;;;;11.53;8.57;;;10.50;99.90;;;;;;5037888;28;20195;-77
2022/04/25 08:45:20;;;;;;;14.43;8.50;;;10.50;99.90;;;;;;5045461;28;20229;-82
2022/04/25 08:47:52;;;;;;;10.67;8.37;;;10.50;99.90;;;;;;5036391;28;20264;-84
2022/04/25 08:50:21;;;;;;;11.47;8.17;;;10.70;99.90;;;;;;5036557;28;20230;-85
2022/04/25 08:52:52;;;;;;;9.60;7.47;;;10.80;99.90;;;;;;5036565;28;20219;-82
2022/04/25 08:55:41;;;;;;;11.23;7.93;;;10.90;99.90;;;;;;5047351;28;20682;-88
2022/04/25 08:58:32;;;;;;;9.50;7.30;;;10.90;99.90;;;;;;5019044;28;20205;-80
2022/04/25 09:01:43;;;;;;;9.37;7.07;;;10.90;99.90;;;;;;5035997;28;20202;-79
2022/04/25 09:04:25;;;;;;;10.90;7.47;;;10.90;99.90;;;;;;5053807;28;20215;-80
2022/04/25 09:10:12;;;;;;;9.60;7.93;;;10.90;99.90;;;;;;5036003;28;20191;-79
2022/04/25 09:12:42;;;;;;;11.33;8.10;;;10.80;99.90;;;;;;5036040;28;20229;-78
2022/04/25 09:15:22;;;;;;;10.40;8.27;;;10.60;99.90;;;;;;5053580;28;20214;-79
2022/04/25 09:17:55;;;;;;;11.83;8.67;;;10.60;99.90;;;;;;5035777;28;20230;-74
2022/04/25 09:20:26;;;;;;;11.07;8.50;;;10.50;99.90;;;;;;5035781;28;20206;-78
2022/04/25 09:22:54;;;;;;;10.83;8.33;;;10.50;99.90;;;;;;5035707;28;20210;-79
2022/04/25 09:25:24;;;;;;;11.43;8.20;;;10.50;99.90;;;;;;5035614;28;20712;-79
2022/04/25 09:28:21;;;;;;;12.03;8.23;;;10.60;99.90;;;;;;5035720;28;20291;-78
2022/04/25 09:31:00;;;;;;;12.77;8.50;;;10.70;99.90;;;;;;5035727;28;20257;-78
2022/04/25 09:33:32;;;;;;;11.97;8.30;;;10.70;99.90;;;;;;5019337;28;20281;-79
2022/04/25 09:36:14;;;;;;;11.40;8.40;;;10.80;99.90;;;;;;5033820;28;20203;-78
2022/04/25 09:39:17;;;;;;;9.97;7.53;;;10.80;99.90;;;;;;5034664;28;20736;-78
2022/04/25 09:41:55;;;;;;;10.27;7.30;;;10.90;99.90;;;;;;5009958;28;20631;-79
2022/04/25 09:44:57;;;;;;;11.70;6.83;;;10.80;99.90;;;;;;5035585;28;20290;-77
2022/04/25 09:47:38;;;;;;;9.97;7.40;;;10.70;99.90;;;;;;5052838;28;20268;-80
2022/04/25 09:50:08;;;;;;;9.00;6.77;;;10.80;99.90;;;;;;5035686;28;20682;-79
2022/04/25 09:53:00;;;;;;;9.87;7.20;;;10.80;99.90;;;;;;5035323;28;20775;-80
2022/04/25 09:55:43;;;;;;;10.00;7.10;;;10.80;99.90;;;;;;5053258;28;20253;-80
2022/04/25 09:58:42;;;;;;;11.10;7.87;;;10.90;99.90;;;;;;5029063;28;20679;-73
2022/04/25 10:04:36;;;;;;;12.73;9.17;;;11.00;99.90;;;;;;4956196;28;20224;-78
2022/04/25 10:07:26;;;;;;;12.30;8.77;;;10.70;99.90;;;;;;4956244;28;20318;-77
2022/04/25 10:10:51;;;;;;;13.77;7.67;;;10.90;99.90;;;;;;4886808;29;20251;-79
2022/04/25 10:13:46;;;;;;;9.43;7.33;;;10.90;99.90;;;;;;4892704;29;20248;-78
2022/04/25 10:16:18;;;;;;;9.87;6.50;;;11.00;99.90;;;;;;4894237;29;20219;-74
2022/04/25 10:18:54;;;;;;;8.87;5.90;;;10.90;99.90;;;;;;4880301;29;20208;-73
2022/04/25 10:21:30;;;;;;;8.90;6.70;;;10.90;99.90;;;;;;4874973;29;20692;-72
2022/04/25 10:24:01;;;;;;;9.97;6.80;;;11.00;99.90;;;;;;4879948;29;20208;-74
2022/04/25 10:26:31;;;;;;;10.10;7.50;;;11.00;99.90;;;;;;4895706;29;20283;-78
2022/04/25 10:29:08;;;;;;;12.13;8.80;;;10.90;99.90;;;;;;4880485;29;20264;-81
2022/04/25 10:32:02;;;;;;;14.07;10.50;;;11.00;99.90;;;;;;4895647;29;20208;-75
2022/04/25 10:35:11;;;;;;;14.43;9.47;;;10.90;99.90;;;;;;4903152;29;20232;-74
2022/04/25 10:37:40;;;;;;;16.23;10.97;;;11.00;99.90;;;;;;4823903;29;20219;-75
2022/04/25 10:40:13;;;;;;;14.13;10.33;;;11.00;99.90;;;;;;4842314;29;20654;-76
2022/04/25 10:46:01;;;;;;;15.80;10.60;;;10.90;99.90;;;;;;4936608;29;20226;-76
2022/04/25 10:48:49;;;;;;;12.50;9.53;;;10.90;99.90;;;;;;4952495;29;20269;-72
2022/04/25 10:51:35;;;;;;;13.00;9.47;;;10.90;99.90;;;;;;4952696;29;20206;-76
2022/04/25 10:54:06;;;;;;;12.40;9.40;;;11.00;99.90;;;;;;4937130;28;20206;-76
2022/04/25 10:56:35;;;;;;;12.30;8.70;;;10.90;99.90;;;;;;4956036;29;20209;-74
2022/04/25 10:59:28;;;;;;;12.53;8.67;;;11.00;99.90;;;;;;4942658;29;20237;-78
2022/04/25 11:02:15;;;;;;;11.80;8.03;;;11.10;99.90;;;;;;4863112;29;20194;-83
2022/04/25 11:05:22;;;;;;;9.87;7.87;;;11.10;99.90;;;;;;4847219;29;20302;-78
2022/04/25 11:08:11;;;;;;;11.10;7.80;;;11.20;99.90;;;;;;4806961;29;20282;-84
2022/04/25 11:10:44;;;;;;;13.27;8.60;;;11.30;99.90;;;;;;4813970;29;20214;-84
2022/04/25 11:13:28;;;;;;;12.70;8.63;;;11.30;99.90;;;;;;4846619;29;20209;-79
2022/04/25 11:16:41;;;;;;;11.57;7.80;;;11.40;99.90;;;;;;4846311;29;20209;-87
2022/04/25 11:19:59;;;;;;;11.77;7.63;;;11.40;99.90;;;;;;4861562;29;20190;-93
2022/04/25 11:22:46;;;;;;;10.60;7.63;;;11.40;99.90;;;;;;4891918;29;20244;-81
2022/04/25 11:25:29;;;;;;;10.93;8.17;;;11.60;99.90;;;;;;4904201;29;20227;-87
2022/04/25 11:28:17;;;;;;;11.83;8.70;;;11.60;99.90;;;;;;4898204;29;20204;-80
2022/04/25 11:30:44;;;;;;;12.70;8.40;;;11.60;99.90;;;;;;4882777;29;20215;-86
2022/04/25 11:33:14;;;;;;;10.80;8.40;;;11.50;99.90;;;;;;4883172;29;20225;-77
2022/04/25 11:35:54;;;;;;;11.83;7.60;;;11.60;99.90;;;;;;4897947;29;20232;-83
2022/04/25 11:39:50;;;;;;;10.57;7.50;;;11.60;99.90;;;;;;4906482;28;20319;-80
2022/04/25 11:41:13;;;;;;;10.33;7.23;;;11.50;99.90;;;;;;4977510;28;20263;-82
2022/04/25 11:44:30;;;;;;;10.73;7.87;;;11.50;99.90;;;;;;4982690;28;20233;-77
2022/04/25 11:47:18;;;;;;;11.20;8.07;;;11.50;99.90;;;;;;4976099;28;20210;-78
2022/04/25 11:50:07;;;;;;;10.60;7.77;;;11.60;99.90;;;;;;4960414;28;20232;-82
2022/04/25 11:52:49;;;;;;;10.93;7.57;;;11.60;99.90;;;;;;4958175;28;20257;-76
2022/04/25 11:55:19;;;;;;;8.97;7.27;;;11.70;99.90;;;;;;4962736;28;20202;-81
2022/04/25 11:57:46;;;;;;;9.40;7.37;;;11.80;99.90;;;;;;4957697;28;20193;-79
2022/04/25 12:00:16;;;;;;;10.13;7.90;;;11.90;99.90;;;;;;4957778;28;20212;-79
2022/04/25 12:02:45;;;;;;;11.97;8.00;;;11.90;99.90;;;;;;4974404;28;20202;-79
2022/04/25 12:05:40;;;;;;;11.97;7.67;;;12.00;99.90;;;;;;4960459;28;20312;-81
2022/04/25 12:16:29;;;;;;;10.13;7.57;;;12.10;99.90;;;;;;4975463;28;20713;-85
2022/04/25 12:19:00;;;;;;;11.03;6.50;;;12.10;99.90;;;;;;4973954;28;20552;-75
2022/04/25 12:21:29;;;;;;;11.17;6.83;;;12.10;99.90;;;;;;4969762;28;20194;-75
2022/04/25 12:23:57;;;;;;;8.67;6.63;;;12.20;99.90;;;;;;5054632;28;20274;-75
2022/04/25 12:26:32;;;;;;;10.70;7.03;;;12.20;99.90;;;;;;5046075;28;20223;-77
2022/04/25 12:29:01;;;;;;;11.40;7.47;;;12.30;99.90;;;;;;5052943;28;20639;-75
2022/04/25 12:31:33;;;;;;;9.93;6.80;;;12.50;99.90;;;;;;5053322;28;20536;-82
2022/04/25 12:34:13;;;;;;;9.10;6.40;;;12.60;99.90;;;;;;5054710;28;20578;-81
2022/04/25 12:37:11;;;;;;;9.27;6.97;;;12.50;99.90;;;;;;5056351;28;20194;-81
2022/04/25 12:40:02;;;;;;;8.93;6.23;;;12.50;99.90;;;;;;5056228;28;20228;-80
2022/04/25 12:43:20;;;;;;;9.30;6.20;;;12.40;99.90;;;;;;5040169;28;20678;-80
2022/04/25 12:45:54;;;;;;;8.50;5.93;;;12.30;99.90;;;;;;4976196;28;20752;-78
2022/04/25 12:48:27;;;;;;;7.37;5.70;;;12.20;99.90;;;;;;4992694;28;20573;-77
2022/04/25 12:51:02;;;;;;;8.50;5.87;;;12.20;99.90;;;;;;4976642;28;20628;-77
2022/04/25 12:54:18;;;;;;;9.60;6.37;;;12.20;99.90;;;;;;4992548;28;20556;-78
2022/04/25 12:56:46;;;;;;;11.80;5.87;;;12.30;99.90;;;;;;4992994;28;20565;-77
2022/04/25 12:59:25;;;;;;;10.30;5.77;;;12.20;99.90;;;;;;4976295;28;20291;-77
2022/04/25 13:02:10;;;;;;;8.63;5.77;;;12.30;99.90;;;;;;4976386;28;20284;-72
2022/04/25 13:04:58;;;;;;;9.30;5.80;;;12.40;99.90;;;;;;4991848;28;20208;-74
2022/04/25 13:07:42;;;;;;;9.67;5.50;;;12.30;99.90;;;;;;4992516;28;20291;-74
2022/04/25 13:10:45;;;;;;;10.87;5.80;;;12.40;99.90;;;;;;4992451;28;20242;-73
2022/04/25 13:13:29;;;;;;;7.73;5.33;;;12.30;99.90;;;;;;4992305;28;20601;-74
2022/04/25 13:16:02;;;;;;;7.87;4.77;;;12.40;99.90;;;;;;4975736;28;20211;-76
2022/04/25 13:18:32;;;;;;;7.20;4.73;;;12.50;99.90;;;;;;4992004;28;20660;-75
2022/04/25 13:21:42;;;;;;;6.50;4.40;;;12.60;99.90;;;;;;4991489;28;20701;-71
2022/04/25 13:24:09;;;;;;;7.50;4.70;;;12.40;99.90;;;;;;5035811;28;20206;-77
2022/04/25 13:26:39;;;;;;;9.27;4.90;;;12.50;99.90;;;;;;5061993;28;20232;-75
2022/04/25 13:29:06;;;;;;;8.03;4.80;;;12.50;99.90;;;;;;5055160;28;20194;-73
2022/04/25 13:31:33;;;;;;;6.60;4.90;;;12.60;99.90;;;;;;5055174;28;20771;-73
2022/04/25 13:34:09;;;;;;;6.23;4.17;;;12.50;99.90;;;;;;5072494;28;20232;-75
2022/04/25 13:36:55;;;;;;;6.63;4.53;;;12.30;99.90;;;;;;5054306;28;20202;-73
2022/04/25 13:39:35;;;;;;;7.53;4.50;;;12.40;99.90;;;;;;5055454;28;20263;-73
2022/04/25 13:42:41;;;;;;;6.93;4.20;;;12.40;99.90;;;;;;5029901;28;20297;-73
2022/04/25 13:45:08;;;;;;;6.53;4.23;;;12.40;99.90;;;;;;5054685;28;20297;-76
2022/04/25 13:47:41;;;;;;;6.47;4.57;;;12.50;99.90;;;;;;5055776;28;20206;-71
2022/04/25 13:50:27;;;;;;;8.70;4.27;;;12.40;99.90;;;;;;5073126;28;20192;-73
2022/04/25 13:52:54;;;;;;;8.57;4.20;;;12.40;99.90;;;;;;5054974;28;20733;-70
2022/04/25 13:55:21;;;;;;;6.50;4.27;;;12.40;99.90;;;;;;5051424;28;20201;-76
2022/04/25 13:57:49;;;;;;;9.77;4.90;;;12.40;99.90;;;;;;5034764;28;20199;-77
2022/04/25 14:00:16;;;;;;;7.90;4.77;;;12.50;99.90;;;;;;5052806;28;20191;-76
2022/04/25 14:05:50;;;;;;;7.40;4.50;;;12.70;99.90;;;;;;5034846;28;20710;-75
2022/04/25 14:08:26;;;;;;;13.97;7.03;;;12.70;99.90;;;;;;4951452;29;20387;-79
2022/04/25 14:10:54;;;;;;;9.07;5.57;;;12.60;99.90;;;;;;4936532;29;20293;-75
2022/04/25 14:13:24;;;;;;;8.07;5.10;;;12.70;99.90;;;;;;4936653;29;20206;-79
2022/04/25 14:15:52;;;;;;;7.47;4.57;;;12.70;99.90;;;;;;4938912;28;20197;-80
2022/04/25 14:18:24;;;;;;;7.83;4.40;;;12.60;99.90;;;;;;4955531;28;20240;-78
2022/04/25 14:20:55;;;;;;;6.57;4.47;;;12.50;99.90;;;;;;4955999;28;20200;-79
2022/04/25 14:23:27;;;;;;;8.33;4.63;;;12.50;99.90;;;;;;4971640;28;20206;-76
2022/04/25 14:25:55;;;;;;;6.60;4.77;;;12.40;99.90;;;;;;4955326;28;20221;-77
2022/04/25 14:29:14;;;;;;;7.00;4.73;;;12.40;99.90;;;;;;4957410;28;20248;-77
2022/04/25 14:31:56;;;;;;;5.87;4.20;;;12.40;99.90;;;;;;4916677;29;20215;-72
2022/04/25 14:34:46;;;;;;;9.67;4.70;;;12.40;99.90;;;;;;4902304;29;20266;-72
2022/04/25 14:37:19;;;;;;;5.83;4.40;;;12.20;99.90;;;;;;4917944;29;20202;-74
2022/04/25 14:39:46;;;;;;;7.53;4.60;;;12.20;99.90;;;;;;4917975;29;20302;-72
2022/04/25 14:42:16;;;;;;;7.57;4.53;;;12.10;99.90;;;;;;4917904;29;20196;-72
2022/04/25 14:44:52;;;;;;;8.17;4.60;;;12.00;99.90;;;;;;4912224;29;20226;-71
2022/04/25 14:47:20;;;;;;;8.07;4.67;;;12.10;99.90;;;;;;4939839;29;20234;-72
2022/04/25 14:55:31;;;;;;;7.10;4.47;;;12.10;99.90;;;;;;4942115;28;20318;-72